sensor_id;sensor_type;location;lat;lon;timestamp;P1;durP1;ratioP1;P2;durP2;ratioP2
11924;SDS011;6022;48.768;18.608;2023-02-23T00:02:05;0.97;;;0.97;;
11924;SDS011;6022;48.768;18.608;2023-02-23T00:04:39;3.87;;;2.17;;
11924;SDS011;6022;48.768;18.608;2023-02-23T00:07:07;1.87;;;0.70;;
11924;SDS011;6022;48.768;18.608;2023-02-23T00:09:45;0.30;;;0.30;;
11924;SDS011;6022;48.768;18.608;2023-02-23T00:12:13;1.47;;;1.30;;
11924;SDS011;6022;48.768;18.608;2023-02-23T00:14:43;1.50;;;1.30;;
11924;SDS011;6022;48.768;18.608;2023-02-23T00:17:15;0.73;;;0.73;;
11924;SDS011;6022;48.768;18.608;2023-02-23T00:19:45;1.47;;;1.10;;
11924;SDS011;6022;48.768;18.608;2023-02-23T00:22:14;0.90;;;0.90;;
11924;SDS011;6022;48.768;18.608;2023-02-23T00:24:45;5.13;;;1.73;;
11924;SDS011;6022;48.768;18.608;2023-02-23T00:27:13;5.53;;;2.37;;
11924;SDS011;6022;48.768;18.608;2023-02-23T00:29:47;2.77;;;2.17;;
11924;SDS011;6022;48.768;18.608;2023-02-23T00:32:17;1.80;;;1.07;;
11924;SDS011;6022;48.768;18.608;2023-02-23T00:34:57;1.93;;;1.33;;
11924;SDS011;6022;48.768;18.608;2023-02-23T00:37:24;2.00;;;1.27;;
11924;SDS011;6022;48.768;18.608;2023-02-23T00:39:54;1.13;;;1.10;;
11924;SDS011;6022;48.768;18.608;2023-02-23T00:42:30;2.10;;;1.93;;
11924;SDS011;6022;48.768;18.608;2023-02-23T00:45:19;0.80;;;0.80;;
11924;SDS011;6022;48.768;18.608;2023-02-23T00:47:50;1.10;;;1.03;;
11924;SDS011;6022;48.768;18.608;2023-02-23T00:50:20;1.60;;;1.50;;
11924;SDS011;6022;48.768;18.608;2023-02-23T00:52:48;1.20;;;1.10;;
11924;SDS011;6022;48.768;18.608;2023-02-23T00:55:16;0.73;;;0.43;;
11924;SDS011;6022;48.768;18.608;2023-02-23T00:57:45;1.63;;;1.20;;
11924;SDS011;6022;48.768;18.608;2023-02-23T01:00:14;1.10;;;1.10;;
11924;SDS011;6022;48.768;18.608;2023-02-23T01:03:13;1.27;;;0.97;;
11924;SDS011;6022;48.768;18.608;2023-02-23T01:05:45;1.67;;;1.57;;
11924;SDS011;6022;48.768;18.608;2023-02-23T01:08:20;0.70;;;0.70;;
11924;SDS011;6022;48.768;18.608;2023-02-23T01:10:48;1.00;;;1.00;;
11924;SDS011;6022;48.768;18.608;2023-02-23T01:13:19;1.60;;;1.50;;
11924;SDS011;6022;48.768;18.608;2023-02-23T01:15:47;1.80;;;1.70;;
11924;SDS011;6022;48.768;18.608;2023-02-23T01:18:15;3.13;;;1.37;;
11924;SDS011;6022;48.768;18.608;2023-02-23T01:20:45;1.17;;;0.93;;
11924;SDS011;6022;48.768;18.608;2023-02-23T01:23:13;2.03;;;1.17;;
11924;SDS011;6022;48.768;18.608;2023-02-23T01:25:46;4.77;;;1.30;;
11924;SDS011;6022;48.768;18.608;2023-02-23T01:28:14;2.53;;;1.73;;
11924;SDS011;6022;48.768;18.608;2023-02-23T01:31:00;2.77;;;2.50;;
11924;SDS011;6022;48.768;18.608;2023-02-23T01:33:30;2.00;;;0.93;;
11924;SDS011;6022;48.768;18.608;2023-02-23T01:35:58;2.00;;;1.47;;
11924;SDS011;6022;48.768;18.608;2023-02-23T01:38:26;0.80;;;0.80;;
11924;SDS011;6022;48.768;18.608;2023-02-23T01:40:57;1.37;;;1.27;;
11924;SDS011;6022;48.768;18.608;2023-02-23T01:43:27;2.60;;;1.90;;
11924;SDS011;6022;48.768;18.608;2023-02-23T01:46:10;2.93;;;2.00;;
11924;SDS011;6022;48.768;18.608;2023-02-23T01:48:48;1.60;;;1.50;;
11924;SDS011;6022;48.768;18.608;2023-02-23T01:51:24;0.37;;;0.37;;
11924;SDS011;6022;48.768;18.608;2023-02-23T01:54:05;3.90;;;1.33;;
11924;SDS011;6022;48.768;18.608;2023-02-23T01:56:43;0.83;;;0.83;;
11924;SDS011;6022;48.768;18.608;2023-02-23T01:59:38;2.67;;;1.27;;
11924;SDS011;6022;48.768;18.608;2023-02-23T02:02:30;0.83;;;0.83;;
11924;SDS011;6022;48.768;18.608;2023-02-23T02:05:32;0.53;;;0.53;;
11924;SDS011;6022;48.768;18.608;2023-02-23T02:08:02;2.23;;;0.90;;
11924;SDS011;6022;48.768;18.608;2023-02-23T02:10:33;2.50;;;1.33;;
11924;SDS011;6022;48.768;18.608;2023-02-23T02:13:10;0.80;;;0.73;;
11924;SDS011;6022;48.768;18.608;2023-02-23T02:15:49;0.70;;;0.70;;
11924;SDS011;6022;48.768;18.608;2023-02-23T02:18:57;0.87;;;0.87;;
11924;SDS011;6022;48.768;18.608;2023-02-23T02:34:01;1.27;;;1.17;;
11924;SDS011;6022;48.768;18.608;2023-02-23T02:42:47;0.50;;;0.47;;
11924;SDS011;6022;48.768;18.608;2023-02-23T02:45:22;0.80;;;0.80;;
11924;SDS011;6022;48.768;18.608;2023-02-23T02:48:05;0.97;;;0.20;;
11924;SDS011;6022;48.768;18.608;2023-02-23T02:50:55;2.23;;;2.13;;
11924;SDS011;6022;48.768;18.608;2023-02-23T02:56:44;0.20;;;0.20;;
11924;SDS011;6022;48.768;18.608;2023-02-23T02:59:16;2.03;;;1.87;;
11924;SDS011;6022;48.768;18.608;2023-02-23T03:02:05;1.03;;;1.00;;
11924;SDS011;6022;48.768;18.608;2023-02-23T03:05:00;1.10;;;1.10;;
11924;SDS011;6022;48.768;18.608;2023-02-23T03:07:53;1.77;;;0.83;;
11924;SDS011;6022;48.768;18.608;2023-02-23T03:11:01;1.53;;;1.47;;
11924;SDS011;6022;48.768;18.608;2023-02-23T03:19:54;0.90;;;0.90;;
11924;SDS011;6022;48.768;18.608;2023-02-23T03:23:23;0.60;;;0.60;;
11924;SDS011;6022;48.768;18.608;2023-02-23T03:29:50;0.77;;;0.73;;
11924;SDS011;6022;48.768;18.608;2023-02-23T03:32:51;1.03;;;0.97;;
11924;SDS011;6022;48.768;18.608;2023-02-23T03:35:56;1.00;;;1.00;;
11924;SDS011;6022;48.768;18.608;2023-02-23T03:39:00;1.70;;;1.20;;
11924;SDS011;6022;48.768;18.608;2023-02-23T03:42:16;2.40;;;1.70;;
11924;SDS011;6022;48.768;18.608;2023-02-23T03:45:10;0.93;;;0.93;;
11924;SDS011;6022;48.768;18.608;2023-02-23T03:48:07;0.63;;;0.57;;
11924;SDS011;6022;48.768;18.608;2023-02-23T03:50:58;1.13;;;1.13;;
11924;SDS011;6022;48.768;18.608;2023-02-23T03:54:11;1.80;;;1.43;;
11924;SDS011;6022;48.768;18.608;2023-02-23T03:57:06;0.47;;;0.47;;
11924;SDS011;6022;48.768;18.608;2023-02-23T04:00:00;1.43;;;1.33;;
11924;SDS011;6022;48.768;18.608;2023-02-23T04:02:52;1.43;;;1.37;;
11924;SDS011;6022;48.768;18.608;2023-02-23T04:05:44;1.13;;;1.00;;
11924;SDS011;6022;48.768;18.608;2023-02-23T04:08:35;0.50;;;0.50;;
11924;SDS011;6022;48.768;18.608;2023-02-23T04:11:27;1.17;;;1.00;;
11924;SDS011;6022;48.768;18.608;2023-02-23T04:18:07;0.67;;;0.67;;
11924;SDS011;6022;48.768;18.608;2023-02-23T04:20:42;1.17;;;1.07;;
11924;SDS011;6022;48.768;18.608;2023-02-23T04:23:10;3.13;;;1.83;;
11924;SDS011;6022;48.768;18.608;2023-02-23T04:25:40;0.97;;;0.97;;
11924;SDS011;6022;48.768;18.608;2023-02-23T04:28:13;2.23;;;1.47;;
11924;SDS011;6022;48.768;18.608;2023-02-23T04:30:44;1.53;;;0.43;;
11924;SDS011;6022;48.768;18.608;2023-02-23T04:33:24;1.07;;;1.00;;
11924;SDS011;6022;48.768;18.608;2023-02-23T04:35:53;1.70;;;1.27;;
11924;SDS011;6022;48.768;18.608;2023-02-23T04:38:21;1.80;;;1.40;;
11924;SDS011;6022;48.768;18.608;2023-02-23T04:40:58;1.03;;;0.93;;
11924;SDS011;6022;48.768;18.608;2023-02-23T04:43:26;1.17;;;1.00;;
11924;SDS011;6022;48.768;18.608;2023-02-23T04:45:53;1.43;;;0.83;;
11924;SDS011;6022;48.768;18.608;2023-02-23T04:48:39;0.33;;;0.33;;
11924;SDS011;6022;48.768;18.608;2023-02-23T04:51:07;5.47;;;2.37;;
11924;SDS011;6022;48.768;18.608;2023-02-23T04:53:34;1.10;;;1.10;;
11924;SDS011;6022;48.768;18.608;2023-02-23T04:56:04;1.27;;;1.17;;
11924;SDS011;6022;48.768;18.608;2023-02-23T04:58:32;2.00;;;1.00;;
11924;SDS011;6022;48.768;18.608;2023-02-23T05:01:06;2.33;;;0.63;;
11924;SDS011;6022;48.768;18.608;2023-02-23T05:03:38;3.40;;;1.23;;
11924;SDS011;6022;48.768;18.608;2023-02-23T05:07:40;4.63;;;0.93;;
11924;SDS011;6022;48.768;18.608;2023-02-23T05:10:08;0.60;;;0.60;;
11924;SDS011;6022;48.768;18.608;2023-02-23T05:12:36;4.37;;;2.07;;
11924;SDS011;6022;48.768;18.608;2023-02-23T05:15:05;2.70;;;2.40;;
11924;SDS011;6022;48.768;18.608;2023-02-23T05:17:33;2.23;;;0.80;;
11924;SDS011;6022;48.768;18.608;2023-02-23T05:20:05;0.63;;;0.47;;
11924;SDS011;6022;48.768;18.608;2023-02-23T05:22:36;1.87;;;1.77;;
11924;SDS011;6022;48.768;18.608;2023-02-23T05:25:04;2.40;;;1.63;;
11924;SDS011;6022;48.768;18.608;2023-02-23T05:27:34;1.27;;;1.23;;
11924;SDS011;6022;48.768;18.608;2023-02-23T05:30:03;0.73;;;0.73;;
11924;SDS011;6022;48.768;18.608;2023-02-23T05:32:33;1.07;;;0.80;;
11924;SDS011;6022;48.768;18.608;2023-02-23T05:35:03;1.00;;;1.00;;
11924;SDS011;6022;48.768;18.608;2023-02-23T05:37:34;1.30;;;1.20;;
11924;SDS011;6022;48.768;18.608;2023-02-23T05:40:20;0.80;;;0.80;;
11924;SDS011;6022;48.768;18.608;2023-02-23T05:42:47;0.67;;;0.67;;
11924;SDS011;6022;48.768;18.608;2023-02-23T05:45:15;1.17;;;1.17;;
11924;SDS011;6022;48.768;18.608;2023-02-23T05:47:43;0.43;;;0.43;;
11924;SDS011;6022;48.768;18.608;2023-02-23T05:50:13;0.63;;;0.63;;
11924;SDS011;6022;48.768;18.608;2023-02-23T05:52:43;1.20;;;1.13;;
11924;SDS011;6022;48.768;18.608;2023-02-23T05:55:11;1.27;;;0.80;;
11924;SDS011;6022;48.768;18.608;2023-02-23T05:57:41;1.53;;;1.43;;
11924;SDS011;6022;48.768;18.608;2023-02-23T06:00:09;0.93;;;0.77;;
11924;SDS011;6022;48.768;18.608;2023-02-23T06:02:39;0.40;;;0.40;;
11924;SDS011;6022;48.768;18.608;2023-02-23T06:05:09;0.80;;;0.80;;
11924;SDS011;6022;48.768;18.608;2023-02-23T06:07:38;1.77;;;1.10;;
11924;SDS011;6022;48.768;18.608;2023-02-23T06:10:06;2.27;;;1.57;;
11924;SDS011;6022;48.768;18.608;2023-02-23T06:12:37;1.10;;;1.00;;
11924;SDS011;6022;48.768;18.608;2023-02-23T06:15:06;1.60;;;1.50;;
11924;SDS011;6022;48.768;18.608;2023-02-23T06:17:34;2.10;;;1.90;;
11924;SDS011;6022;48.768;18.608;2023-02-23T06:20:03;2.57;;;1.53;;
11924;SDS011;6022;48.768;18.608;2023-02-23T06:22:34;0.60;;;0.60;;
11924;SDS011;6022;48.768;18.608;2023-02-23T06:25:04;1.00;;;1.00;;
11924;SDS011;6022;48.768;18.608;2023-02-23T06:27:38;0.90;;;0.90;;
11924;SDS011;6022;48.768;18.608;2023-02-23T06:30:06;1.37;;;1.37;;
11924;SDS011;6022;48.768;18.608;2023-02-23T06:32:34;0.43;;;0.43;;
11924;SDS011;6022;48.768;18.608;2023-02-23T06:35:02;0.90;;;0.87;;
11924;SDS011;6022;48.768;18.608;2023-02-23T06:37:32;0.97;;;0.97;;
11924;SDS011;6022;48.768;18.608;2023-02-23T06:40:03;2.00;;;1.47;;
11924;SDS011;6022;48.768;18.608;2023-02-23T06:42:33;1.67;;;0.87;;
11924;SDS011;6022;48.768;18.608;2023-02-23T06:45:02;5.93;;;1.77;;
11924;SDS011;6022;48.768;18.608;2023-02-23T06:47:35;2.20;;;2.10;;
11924;SDS011;6022;48.768;18.608;2023-02-23T06:50:03;1.07;;;0.80;;
11924;SDS011;6022;48.768;18.608;2023-02-23T06:52:37;1.67;;;1.57;;
11924;SDS011;6022;48.768;18.608;2023-02-23T06:55:06;1.93;;;1.57;;
11924;SDS011;6022;48.768;18.608;2023-02-23T06:57:34;3.40;;;2.33;;
11924;SDS011;6022;48.768;18.608;2023-02-23T07:00:02;2.20;;;1.80;;
11924;SDS011;6022;48.768;18.608;2023-02-23T07:02:33;1.57;;;1.47;;
11924;SDS011;6022;48.768;18.608;2023-02-23T07:05:14;1.87;;;1.13;;
11924;SDS011;6022;48.768;18.608;2023-02-23T07:07:42;1.00;;;0.83;;
11924;SDS011;6022;48.768;18.608;2023-02-23T07:10:11;1.87;;;1.03;;
11924;SDS011;6022;48.768;18.608;2023-02-23T07:12:38;2.27;;;1.43;;
11924;SDS011;6022;48.768;18.608;2023-02-23T07:15:09;1.40;;;1.30;;
11924;SDS011;6022;48.768;18.608;2023-02-23T07:17:38;1.80;;;1.10;;
11924;SDS011;6022;48.768;18.608;2023-02-23T07:20:09;1.63;;;1.30;;
11924;SDS011;6022;48.768;18.608;2023-02-23T07:22:38;5.03;;;1.30;;
11924;SDS011;6022;48.768;18.608;2023-02-23T07:25:06;1.60;;;1.50;;
11924;SDS011;6022;48.768;18.608;2023-02-23T07:27:34;1.63;;;1.53;;
11924;SDS011;6022;48.768;18.608;2023-02-23T07:30:03;1.67;;;1.43;;
11924;SDS011;6022;48.768;18.608;2023-02-23T07:32:31;1.00;;;0.80;;
11924;SDS011;6022;48.768;18.608;2023-02-23T07:36:20;1.43;;;1.37;;
11924;SDS011;6022;48.768;18.608;2023-02-23T07:39:35;2.20;;;2.00;;
11924;SDS011;6022;48.768;18.608;2023-02-23T07:42:10;1.37;;;1.27;;
11924;SDS011;6022;48.768;18.608;2023-02-23T07:44:38;5.87;;;1.23;;
11924;SDS011;6022;48.768;18.608;2023-02-23T07:47:16;1.93;;;1.50;;
11924;SDS011;6022;48.768;18.608;2023-02-23T07:50:11;1.87;;;1.37;;
11924;SDS011;6022;48.768;18.608;2023-02-23T07:52:56;1.13;;;1.10;;
11924;SDS011;6022;48.768;18.608;2023-02-23T07:58:39;1.40;;;1.30;;
11924;SDS011;6022;48.768;18.608;2023-02-23T08:01:36;1.33;;;1.23;;
11924;SDS011;6022;48.768;18.608;2023-02-23T08:04:04;3.27;;;1.67;;
11924;SDS011;6022;48.768;18.608;2023-02-23T08:06:32;7.20;;;2.00;;
11924;SDS011;6022;48.768;18.608;2023-02-23T08:09:00;2.53;;;1.90;;
11924;SDS011;6022;48.768;18.608;2023-02-23T08:11:34;1.67;;;1.40;;
11924;SDS011;6022;48.768;18.608;2023-02-23T08:14:07;1.93;;;1.40;;
11924;SDS011;6022;48.768;18.608;2023-02-23T08:16:36;1.03;;;0.93;;
11924;SDS011;6022;48.768;18.608;2023-02-23T08:19:29;0.80;;;0.80;;
11924;SDS011;6022;48.768;18.608;2023-02-23T08:22:08;3.00;;;2.13;;
11924;SDS011;6022;48.768;18.608;2023-02-23T08:29:52;2.30;;;1.67;;
11924;SDS011;6022;48.768;18.608;2023-02-23T08:37:29;2.97;;;2.77;;
11924;SDS011;6022;48.768;18.608;2023-02-23T08:41:34;2.37;;;2.10;;
11924;SDS011;6022;48.768;18.608;2023-02-23T08:54:17;2.37;;;2.23;;
11924;SDS011;6022;48.768;18.608;2023-02-23T08:58:09;1.70;;;1.60;;
11924;SDS011;6022;48.768;18.608;2023-02-23T09:00:38;3.20;;;2.60;;
11924;SDS011;6022;48.768;18.608;2023-02-23T09:03:05;1.37;;;1.30;;
11924;SDS011;6022;48.768;18.608;2023-02-23T09:05:43;8.93;;;2.13;;
11924;SDS011;6022;48.768;18.608;2023-02-23T09:11:32;1.60;;;1.50;;
11924;SDS011;6022;48.768;18.608;2023-02-23T09:14:26;13.53;;;2.03;;
11924;SDS011;6022;48.768;18.608;2023-02-23T09:17:21;1.63;;;1.43;;
11924;SDS011;6022;48.768;18.608;2023-02-23T09:19:57;1.97;;;1.80;;
11924;SDS011;6022;48.768;18.608;2023-02-23T09:26:18;1.50;;;1.40;;
11924;SDS011;6022;48.768;18.608;2023-02-23T09:29:10;7.80;;;2.27;;
11924;SDS011;6022;48.768;18.608;2023-02-23T09:32:10;2.10;;;1.40;;
11924;SDS011;6022;48.768;18.608;2023-02-23T09:35:24;5.30;;;1.77;;
11924;SDS011;6022;48.768;18.608;2023-02-23T09:38:23;4.00;;;2.43;;
11924;SDS011;6022;48.768;18.608;2023-02-23T09:45:30;2.43;;;1.83;;
11924;SDS011;6022;48.768;18.608;2023-02-23T09:52:50;2.87;;;1.63;;
11924;SDS011;6022;48.768;18.608;2023-02-23T09:55:40;1.47;;;1.37;;
11924;SDS011;6022;48.768;18.608;2023-02-23T09:58:32;1.23;;;1.13;;
11924;SDS011;6022;48.768;18.608;2023-02-23T10:01:53;2.20;;;1.23;;
11924;SDS011;6022;48.768;18.608;2023-02-23T10:04:42;2.23;;;1.83;;
11924;SDS011;6022;48.768;18.608;2023-02-23T10:16:34;1.40;;;1.30;;
11924;SDS011;6022;48.768;18.608;2023-02-23T10:19:26;1.40;;;1.23;;
11924;SDS011;6022;48.768;18.608;2023-02-23T10:22:37;11.37;;;1.97;;
11924;SDS011;6022;48.768;18.608;2023-02-23T10:25:11;1.87;;;1.77;;
11924;SDS011;6022;48.768;18.608;2023-02-23T10:27:58;2.73;;;1.77;;
11924;SDS011;6022;48.768;18.608;2023-02-23T10:30:29;3.53;;;2.20;;
11924;SDS011;6022;48.768;18.608;2023-02-23T10:37:01;2.17;;;1.97;;
11924;SDS011;6022;48.768;18.608;2023-02-23T10:41:46;2.17;;;1.70;;
11924;SDS011;6022;48.768;18.608;2023-02-23T10:44:17;2.87;;;1.80;;
11924;SDS011;6022;48.768;18.608;2023-02-23T10:47:00;1.97;;;1.80;;
11924;SDS011;6022;48.768;18.608;2023-02-23T10:49:54;3.43;;;1.63;;
11924;SDS011;6022;48.768;18.608;2023-02-23T10:55:03;3.90;;;1.77;;
11924;SDS011;6022;48.768;18.608;2023-02-23T10:57:48;4.57;;;2.87;;
11924;SDS011;6022;48.768;18.608;2023-02-23T11:00:28;3.10;;;2.00;;
11924;SDS011;6022;48.768;18.608;2023-02-23T11:03:01;2.73;;;1.93;;
11924;SDS011;6022;48.768;18.608;2023-02-23T11:05:54;5.73;;;2.43;;
11924;SDS011;6022;48.768;18.608;2023-02-23T11:11:31;2.90;;;1.57;;
11924;SDS011;6022;48.768;18.608;2023-02-23T11:14:15;3.90;;;2.13;;
11924;SDS011;6022;48.768;18.608;2023-02-23T11:18:03;1.90;;;1.37;;
11924;SDS011;6022;48.768;18.608;2023-02-23T11:20:50;4.70;;;2.00;;
11924;SDS011;6022;48.768;18.608;2023-02-23T11:23:25;3.20;;;1.73;;
11924;SDS011;6022;48.768;18.608;2023-02-23T11:26:19;2.83;;;1.87;;
11924;SDS011;6022;48.768;18.608;2023-02-23T11:28:55;2.70;;;1.93;;
11924;SDS011;6022;48.768;18.608;2023-02-23T11:31:31;2.40;;;1.87;;
11924;SDS011;6022;48.768;18.608;2023-02-23T11:34:04;7.70;;;2.17;;
11924;SDS011;6022;48.768;18.608;2023-02-23T11:36:34;4.20;;;2.33;;
11924;SDS011;6022;48.768;18.608;2023-02-23T11:41:42;3.60;;;2.43;;
11924;SDS011;6022;48.768;18.608;2023-02-23T11:44:20;4.50;;;2.47;;
11924;SDS011;6022;48.768;18.608;2023-02-23T11:46:49;5.30;;;2.30;;
11924;SDS011;6022;48.768;18.608;2023-02-23T11:49:19;3.17;;;2.27;;
11924;SDS011;6022;48.768;18.608;2023-02-23T11:51:56;1.93;;;1.60;;
11924;SDS011;6022;48.768;18.608;2023-02-23T11:54:27;2.97;;;2.60;;
11924;SDS011;6022;48.768;18.608;2023-02-23T11:56:58;2.20;;;2.00;;
11924;SDS011;6022;48.768;18.608;2023-02-23T11:59:32;3.90;;;2.07;;
11924;SDS011;6022;48.768;18.608;2023-02-23T12:02:27;2.23;;;1.93;;
11924;SDS011;6022;48.768;18.608;2023-02-23T12:05:05;3.80;;;2.23;;
11924;SDS011;6022;48.768;18.608;2023-02-23T12:10:40;5.03;;;2.50;;
11924;SDS011;6022;48.768;18.608;2023-02-23T12:16:13;3.93;;;2.23;;
11924;SDS011;6022;48.768;18.608;2023-02-23T12:19:18;8.73;;;2.67;;
11924;SDS011;6022;48.768;18.608;2023-02-23T12:22:28;1.77;;;1.37;;
11924;SDS011;6022;48.768;18.608;2023-02-23T12:25:09;3.33;;;2.47;;
11924;SDS011;6022;48.768;18.608;2023-02-23T12:28:10;2.63;;;2.10;;
11924;SDS011;6022;48.768;18.608;2023-02-23T12:30:54;4.07;;;2.40;;
11924;SDS011;6022;48.768;18.608;2023-02-23T12:33:39;3.83;;;2.50;;
11924;SDS011;6022;48.768;18.608;2023-02-23T12:39:20;4.27;;;2.17;;
11924;SDS011;6022;48.768;18.608;2023-02-23T12:42:11;5.60;;;1.80;;
11924;SDS011;6022;48.768;18.608;2023-02-23T12:44:48;3.23;;;2.07;;
11924;SDS011;6022;48.768;18.608;2023-02-23T12:53:01;2.97;;;2.00;;
11924;SDS011;6022;48.768;18.608;2023-02-23T13:02:31;6.10;;;2.63;;
11924;SDS011;6022;48.768;18.608;2023-02-23T13:05:25;13.73;;;2.53;;
11924;SDS011;6022;48.768;18.608;2023-02-23T13:10:50;4.00;;;1.83;;
11924;SDS011;6022;48.768;18.608;2023-02-23T13:13:47;3.67;;;1.60;;
11924;SDS011;6022;48.768;18.608;2023-02-23T13:16:29;3.47;;;2.00;;
11924;SDS011;6022;48.768;18.608;2023-02-23T13:19:16;1.23;;;0.97;;
11924;SDS011;6022;48.768;18.608;2023-02-23T13:24:26;2.93;;;2.13;;
11924;SDS011;6022;48.768;18.608;2023-02-23T13:27:15;2.63;;;1.90;;
11924;SDS011;6022;48.768;18.608;2023-02-23T13:30:12;2.00;;;1.80;;
11924;SDS011;6022;48.768;18.608;2023-02-23T13:32:42;3.83;;;2.30;;
11924;SDS011;6022;48.768;18.608;2023-02-23T13:35:14;3.30;;;1.83;;
11924;SDS011;6022;48.768;18.608;2023-02-23T13:37:50;2.43;;;2.17;;
11924;SDS011;6022;48.768;18.608;2023-02-23T13:40:37;5.03;;;2.80;;
11924;SDS011;6022;48.768;18.608;2023-02-23T13:43:32;1.37;;;1.27;;
11924;SDS011;6022;48.768;18.608;2023-02-23T13:49:21;2.90;;;2.60;;
11924;SDS011;6022;48.768;18.608;2023-02-23T13:52:26;2.53;;;2.33;;
11924;SDS011;6022;48.768;18.608;2023-02-23T13:58:13;2.77;;;1.93;;
11924;SDS011;6022;48.768;18.608;2023-02-23T14:00:53;5.03;;;1.90;;
11924;SDS011;6022;48.768;18.608;2023-02-23T14:03:55;2.77;;;1.93;;
11924;SDS011;6022;48.768;18.608;2023-02-23T14:06:33;3.23;;;2.10;;
11924;SDS011;6022;48.768;18.608;2023-02-23T14:09:21;4.63;;;2.63;;
11924;SDS011;6022;48.768;18.608;2023-02-23T14:15:27;6.40;;;1.87;;
11924;SDS011;6022;48.768;18.608;2023-02-23T14:21:00;2.60;;;2.10;;
11924;SDS011;6022;48.768;18.608;2023-02-23T14:24:19;5.23;;;1.97;;
11924;SDS011;6022;48.768;18.608;2023-02-23T14:32:37;2.83;;;2.50;;
11924;SDS011;6022;48.768;18.608;2023-02-23T14:40:51;2.13;;;1.97;;
11924;SDS011;6022;48.768;18.608;2023-02-23T14:46:07;3.53;;;1.73;;
11924;SDS011;6022;48.768;18.608;2023-02-23T14:49:06;2.57;;;2.23;;
11924;SDS011;6022;48.768;18.608;2023-02-23T14:51:52;2.77;;;2.27;;
11924;SDS011;6022;48.768;18.608;2023-02-23T14:54:23;2.27;;;1.63;;
11924;SDS011;6022;48.768;18.608;2023-02-23T14:57:13;3.63;;;2.03;;
11924;SDS011;6022;48.768;18.608;2023-02-23T14:59:59;2.57;;;2.37;;
11924;SDS011;6022;48.768;18.608;2023-02-23T15:02:33;2.73;;;1.83;;
11924;SDS011;6022;48.768;18.608;2023-02-23T15:05:19;1.67;;;1.57;;
11924;SDS011;6022;48.768;18.608;2023-02-23T15:07:52;3.00;;;1.83;;
11924;SDS011;6022;48.768;18.608;2023-02-23T15:13:10;3.53;;;2.63;;
11924;SDS011;6022;48.768;18.608;2023-02-23T15:15:45;5.73;;;3.20;;
11924;SDS011;6022;48.768;18.608;2023-02-23T15:21:57;1.67;;;1.53;;
11924;SDS011;6022;48.768;18.608;2023-02-23T15:24:29;2.20;;;1.77;;
11924;SDS011;6022;48.768;18.608;2023-02-23T15:27:20;2.33;;;1.67;;
11924;SDS011;6022;48.768;18.608;2023-02-23T15:29:55;3.63;;;2.03;;
11924;SDS011;6022;48.768;18.608;2023-02-23T15:32:25;6.40;;;1.93;;
11924;SDS011;6022;48.768;18.608;2023-02-23T15:34:52;2.37;;;1.43;;
11924;SDS011;6022;48.768;18.608;2023-02-23T15:37:36;5.23;;;1.90;;
11924;SDS011;6022;48.768;18.608;2023-02-23T15:40:36;5.50;;;2.13;;
11924;SDS011;6022;48.768;18.608;2023-02-23T15:43:04;2.53;;;1.50;;
11924;SDS011;6022;48.768;18.608;2023-02-23T15:45:48;3.13;;;1.80;;
11924;SDS011;6022;48.768;18.608;2023-02-23T15:48:23;3.13;;;2.20;;
11924;SDS011;6022;48.768;18.608;2023-02-23T15:50:58;2.23;;;2.07;;
11924;SDS011;6022;48.768;18.608;2023-02-23T15:53:27;3.17;;;2.07;;
11924;SDS011;6022;48.768;18.608;2023-02-23T15:56:42;2.03;;;1.93;;
11924;SDS011;6022;48.768;18.608;2023-02-23T15:58:55;2.63;;;2.37;;
11924;SDS011;6022;48.768;18.608;2023-02-23T16:01:30;3.70;;;1.83;;
11924;SDS011;6022;48.768;18.608;2023-02-23T16:06:51;1.90;;;1.17;;
11924;SDS011;6022;48.768;18.608;2023-02-23T16:09:32;2.53;;;2.13;;
11924;SDS011;6022;48.768;18.608;2023-02-23T16:12:08;3.17;;;2.33;;
11924;SDS011;6022;48.768;18.608;2023-02-23T16:14:44;1.73;;;1.63;;
11924;SDS011;6022;48.768;18.608;2023-02-23T16:17:26;4.23;;;2.83;;
11924;SDS011;6022;48.768;18.608;2023-02-23T16:23:18;4.03;;;2.90;;
11924;SDS011;6022;48.768;18.608;2023-02-23T16:26:33;2.60;;;2.20;;
11924;SDS011;6022;48.768;18.608;2023-02-23T16:29:12;2.60;;;2.03;;
11924;SDS011;6022;48.768;18.608;2023-02-23T16:31:46;5.03;;;2.40;;
11924;SDS011;6022;48.768;18.608;2023-02-23T16:37:21;4.53;;;2.50;;
11924;SDS011;6022;48.768;18.608;2023-02-23T16:39:51;5.37;;;2.77;;
11924;SDS011;6022;48.768;18.608;2023-02-23T16:42:33;4.50;;;3.07;;
11924;SDS011;6022;48.768;18.608;2023-02-23T16:45:03;3.83;;;3.20;;
11924;SDS011;6022;48.768;18.608;2023-02-23T16:47:34;7.20;;;2.20;;
11924;SDS011;6022;48.768;18.608;2023-02-23T16:50:13;6.57;;;2.83;;
11924;SDS011;6022;48.768;18.608;2023-02-23T16:52:47;3.50;;;1.93;;
11924;SDS011;6022;48.768;18.608;2023-02-23T16:55:25;7.27;;;2.60;;
11924;SDS011;6022;48.768;18.608;2023-02-23T16:58:06;7.03;;;2.30;;
11924;SDS011;6022;48.768;18.608;2023-02-23T17:00:42;2.53;;;1.93;;
11924;SDS011;6022;48.768;18.608;2023-02-23T17:03:24;2.47;;;2.20;;
11924;SDS011;6022;48.768;18.608;2023-02-23T17:05:53;13.87;;;2.80;;
11924;SDS011;6022;48.768;18.608;2023-02-23T17:08:22;6.57;;;2.67;;
11924;SDS011;6022;48.768;18.608;2023-02-23T17:10:50;2.43;;;1.70;;
11924;SDS011;6022;48.768;18.608;2023-02-23T17:13:24;5.20;;;1.97;;
11924;SDS011;6022;48.768;18.608;2023-02-23T17:15:55;6.00;;;2.63;;
11924;SDS011;6022;48.768;18.608;2023-02-23T17:18:29;3.67;;;2.03;;
11924;SDS011;6022;48.768;18.608;2023-02-23T17:21:05;6.00;;;2.43;;
11924;SDS011;6022;48.768;18.608;2023-02-23T17:23:40;2.80;;;2.13;;
11924;SDS011;6022;48.768;18.608;2023-02-23T17:26:13;3.47;;;2.23;;
11924;SDS011;6022;48.768;18.608;2023-02-23T17:28:43;6.53;;;3.17;;
11924;SDS011;6022;48.768;18.608;2023-02-23T17:31:19;5.50;;;2.97;;
11924;SDS011;6022;48.768;18.608;2023-02-23T17:33:50;4.67;;;3.77;;
11924;SDS011;6022;48.768;18.608;2023-02-23T17:36:42;3.57;;;2.63;;
11924;SDS011;6022;48.768;18.608;2023-02-23T17:39:09;4.17;;;2.80;;
11924;SDS011;6022;48.768;18.608;2023-02-23T17:41:39;2.80;;;2.27;;
11924;SDS011;6022;48.768;18.608;2023-02-23T17:44:09;4.30;;;2.73;;
11924;SDS011;6022;48.768;18.608;2023-02-23T17:46:48;3.30;;;2.87;;
11924;SDS011;6022;48.768;18.608;2023-02-23T17:49:16;4.53;;;2.47;;
11924;SDS011;6022;48.768;18.608;2023-02-23T17:51:43;4.33;;;2.03;;
11924;SDS011;6022;48.768;18.608;2023-02-23T17:54:10;4.27;;;2.50;;
11924;SDS011;6022;48.768;18.608;2023-02-23T17:56:40;5.53;;;1.87;;
11924;SDS011;6022;48.768;18.608;2023-02-23T17:59:09;3.57;;;2.77;;
11924;SDS011;6022;48.768;18.608;2023-02-23T18:01:36;7.47;;;3.77;;
11924;SDS011;6022;48.768;18.608;2023-02-23T18:04:03;5.33;;;2.63;;
11924;SDS011;6022;48.768;18.608;2023-02-23T18:06:30;1.63;;;1.53;;
11924;SDS011;6022;48.768;18.608;2023-02-23T18:08:58;3.33;;;2.37;;
11924;SDS011;6022;48.768;18.608;2023-02-23T18:11:33;4.67;;;2.30;;
11924;SDS011;6022;48.768;18.608;2023-02-23T18:14:03;3.13;;;2.47;;
11924;SDS011;6022;48.768;18.608;2023-02-23T18:16:30;5.40;;;2.73;;
11924;SDS011;6022;48.768;18.608;2023-02-23T18:18:59;4.33;;;2.73;;
11924;SDS011;6022;48.768;18.608;2023-02-23T18:21:26;6.93;;;2.80;;
11924;SDS011;6022;48.768;18.608;2023-02-23T18:23:54;10.77;;;5.93;;
11924;SDS011;6022;48.768;18.608;2023-02-23T18:26:28;13.43;;;9.07;;
11924;SDS011;6022;48.768;18.608;2023-02-23T18:28:56;16.07;;;8.00;;
11924;SDS011;6022;48.768;18.608;2023-02-23T18:31:24;4.20;;;2.73;;
11924;SDS011;6022;48.768;18.608;2023-02-23T18:33:58;3.97;;;3.60;;
11924;SDS011;6022;48.768;18.608;2023-02-23T18:36:31;5.27;;;3.10;;
11924;SDS011;6022;48.768;18.608;2023-02-23T18:39:05;3.37;;;3.00;;
11924;SDS011;6022;48.768;18.608;2023-02-23T18:41:34;4.50;;;3.33;;
11924;SDS011;6022;48.768;18.608;2023-02-23T18:44:03;5.90;;;3.77;;
11924;SDS011;6022;48.768;18.608;2023-02-23T18:46:39;3.33;;;3.03;;